sensor_id;sensor_type;location;lat;lon;timestamp;pressure;altitude;pressure_sealevel;temperature;humidity
38452;BME280;24231;52.514;13.438;2023-04-03T00:01:56;102567.21;;;1.30;58.48
38452;BME280;24231;52.514;13.438;2023-04-03T00:04:24;102561.68;;;1.58;56.96
38452;BME280;24231;52.514;13.438;2023-04-03T00:06:51;102561.61;;;2.27;55.07
38452;BME280;24231;52.514;13.438;2023-04-03T00:09:18;102559.70;;;2.97;52.53
38452;BME280;24231;52.514;13.438;2023-04-03T00:11:46;102561.53;;;2.68;53.10
38452;BME280;24231;52.514;13.438;2023-04-03T00:14:13;102559.48;;;3.00;51.50
38452;BME280;24231;52.514;13.438;2023-04-03T00:16:45;102557.49;;;3.54;50.31
38452;BME280;24231;52.514;13.438;2023-04-03T00:19:12;102563.33;;;3.00;51.70
38452;BME280;24231;52.514;13.438;2023-04-03T00:21:39;102564.42;;;1.95;53.74
38452;BME280;24231;52.514;13.438;2023-04-03T00:24:12;102563.21;;;2.80;52.08
38452;BME280;24231;52.514;13.438;2023-04-03T00:26:38;102563.46;;;3.15;51.05
38452;BME280;24231;52.514;13.438;2023-04-03T00:29:05;102561.13;;;3.72;49.61
38452;BME280;24231;52.514;13.438;2023-04-03T00:31:32;102568.00;;;3.06;51.31
38452;BME280;24231;52.514;13.438;2023-04-03T00:33:59;102563.87;;;1.92;53.71
38452;BME280;24231;52.514;13.438;2023-04-03T00:36:26;102561.95;;;3.55;50.25
38452;BME280;24231;52.514;13.438;2023-04-03T00:38:54;102562.90;;;3.63;49.47
38452;BME280;24231;52.514;13.438;2023-04-03T00:41:21;102568.16;;;2.64;51.90
38452;BME280;24231;52.514;13.438;2023-04-03T00:43:48;102570.62;;;2.63;51.89
38452;BME280;24231;52.514;13.438;2023-04-03T00:46:14;102560.84;;;4.27;48.03
38452;BME280;24231;52.514;13.438;2023-04-03T00:48:43;102558.52;;;3.37;49.16
38452;BME280;24231;52.514;13.438;2023-04-03T00:51:13;102556.72;;;3.78;48.66
38452;BME280;24231;52.514;13.438;2023-04-03T00:53:44;102567.37;;;2.46;51.53
38452;BME280;24231;52.514;13.438;2023-04-03T00:56:16;102566.39;;;2.82;50.71
38452;BME280;24231;52.514;13.438;2023-04-03T00:58:53;102566.27;;;2.71;50.83
38452;BME280;24231;52.514;13.438;2023-04-03T01:01:24;102563.00;;;3.59;49.01
38452;BME280;24231;52.514;13.438;2023-04-03T01:03:51;102561.00;;;3.89;48.12
38452;BME280;24231;52.514;13.438;2023-04-03T01:06:23;102560.73;;;3.74;48.25
38452;BME280;24231;52.514;13.438;2023-04-03T01:08:52;102568.07;;;3.37;49.30
38452;BME280;24231;52.514;13.438;2023-04-03T01:11:20;102566.90;;;3.71;48.78
38452;BME280;24231;52.514;13.438;2023-04-03T01:13:47;102566.89;;;3.55;48.61
38452;BME280;24231;52.514;13.438;2023-04-03T01:16:15;102566.78;;;3.39;49.59
38452;BME280;24231;52.514;13.438;2023-04-03T01:18:43;102564.68;;;3.69;48.25
38452;BME280;24231;52.514;13.438;2023-04-03T01:21:43;102565.77;;;4.29;46.85
38452;BME280;24231;52.514;13.438;2023-04-03T01:24:33;102562.96;;;3.99;48.07
38452;BME280;24231;52.514;13.438;2023-04-03T01:27:04;102566.51;;;4.45;46.53
38452;BME280;24231;52.514;13.438;2023-04-03T01:29:42;102567.55;;;3.81;47.71
38452;BME280;24231;52.514;13.438;2023-04-03T01:32:10;102566.09;;;4.06;47.03
38452;BME280;24231;52.514;13.438;2023-04-03T01:34:37;102570.07;;;3.51;48.58
38452;BME280;24231;52.514;13.438;2023-04-03T01:37:05;102567.94;;;3.75;47.72
38452;BME280;24231;52.514;13.438;2023-04-03T01:39:31;102572.11;;;4.03;47.51
38452;BME280;24231;52.514;13.438;2023-04-03T01:41:58;102574.30;;;4.24;47.07
38452;BME280;24231;52.514;13.438;2023-04-03T01:44:25;102575.28;;;3.93;47.61
38452;BME280;24231;52.514;13.438;2023-04-03T01:46:53;102580.19;;;4.40;46.72
38452;BME280;24231;52.514;13.438;2023-04-03T01:49:19;102582.56;;;3.79;48.29
38452;BME280;24231;52.514;13.438;2023-04-03T01:51:46;102582.87;;;4.24;47.39
38452;BME280;24231;52.514;13.438;2023-04-03T01:54:13;102584.75;;;4.31;47.10
38452;BME280;24231;52.514;13.438;2023-04-03T01:56:40;102581.41;;;3.90;48.32
38452;BME280;24231;52.514;13.438;2023-04-03T01:59:08;102593.80;;;2.67;50.52
38452;BME280;24231;52.514;13.438;2023-04-03T02:01:35;102594.60;;;2.62;50.73
38452;BME280;24231;52.514;13.438;2023-04-03T02:04:02;102596.52;;;3.25;49.97
38452;BME280;24231;52.514;13.438;2023-04-03T02:06:29;102593.19;;;3.79;49.19
38452;BME280;24231;52.514;13.438;2023-04-03T02:08:56;102600.23;;;3.22;50.09
38452;BME280;24231;52.514;13.438;2023-04-03T02:11:23;102594.32;;;3.45;49.38
38452;BME280;24231;52.514;13.438;2023-04-03T02:13:50;102595.84;;;2.24;52.58
38452;BME280;24231;52.514;13.438;2023-04-03T02:16:17;102594.10;;;2.91;51.09
38452;BME280;24231;52.514;13.438;2023-04-03T02:18:43;102591.90;;;2.71;51.89
38452;BME280;24231;52.514;13.438;2023-04-03T02:21:10;102592.01;;;3.40;50.54
38452;BME280;24231;52.514;13.438;2023-04-03T02:23:37;102592.45;;;2.95;51.74
38452;BME280;24231;52.514;13.438;2023-04-03T02:26:06;102594.68;;;3.28;51.06
38452;BME280;24231;52.514;13.438;2023-04-03T02:28:34;102601.57;;;3.04;51.43
38452;BME280;24231;52.514;13.438;2023-04-03T02:31:01;102604.35;;;2.89;51.76
38452;BME280;24231;52.514;13.438;2023-04-03T02:33:28;102606.05;;;3.07;51.20
38452;BME280;24231;52.514;13.438;2023-04-03T02:35:56;102606.22;;;2.79;52.36
38452;BME280;24231;52.514;13.438;2023-04-03T02:38:24;102611.84;;;2.75;52.32
38452;BME280;24231;52.514;13.438;2023-04-03T02:40:52;102610.70;;;2.08;54.01
38452;BME280;24231;52.514;13.438;2023-04-03T02:43:19;102618.67;;;2.98;51.68
38452;BME280;24231;52.514;13.438;2023-04-03T02:45:46;102621.54;;;3.27;51.08
38452;BME280;24231;52.514;13.438;2023-04-03T02:48:13;102623.95;;;2.29;52.86
38452;BME280;24231;52.514;13.438;2023-04-03T02:50:40;102627.69;;;2.73;52.59
38452;BME280;24231;52.514;13.438;2023-04-03T02:53:08;102630.04;;;2.44;52.94
38452;BME280;24231;52.514;13.438;2023-04-03T02:55:35;102627.94;;;2.53;52.96
38452;BME280;24231;52.514;13.438;2023-04-03T02:58:02;102631.21;;;2.96;52.26
38452;BME280;24231;52.514;13.438;2023-04-03T03:00:30;102629.54;;;2.60;52.25
38452;BME280;24231;52.514;13.438;2023-04-03T03:02:57;102634.66;;;1.61;54.70
38452;BME280;24231;52.514;13.438;2023-04-03T03:05:24;102633.10;;;2.62;53.44
38452;BME280;24231;52.514;13.438;2023-04-03T03:07:52;102631.01;;;2.47;53.14
38452;BME280;24231;52.514;13.438;2023-04-03T03:10:19;102635.26;;;3.19;51.51
38452;BME280;24231;52.514;13.438;2023-04-03T03:12:46;102634.52;;;2.85;52.39
38452;BME280;24231;52.514;13.438;2023-04-03T03:15:14;102634.74;;;2.63;52.87
38452;BME280;24231;52.514;13.438;2023-04-03T03:17:42;102637.84;;;2.80;52.70
38452;BME280;24231;52.514;13.438;2023-04-03T03:20:11;102640.51;;;1.33;56.28
38452;BME280;24231;52.514;13.438;2023-04-03T03:22:38;102639.75;;;2.73;52.99
38452;BME280;24231;52.514;13.438;2023-04-03T03:25:06;102642.35;;;2.42;53.15
38452;BME280;24231;52.514;13.438;2023-04-03T03:27:33;102644.88;;;2.48;53.07
38452;BME280;24231;52.514;13.438;2023-04-03T03:30:00;102647.04;;;3.09;51.37
38452;BME280;24231;52.514;13.438;2023-04-03T03:32:27;102646.20;;;1.94;54.33
38452;BME280;24231;52.514;13.438;2023-04-03T03:34:53;102645.98;;;2.69;53.23
38452;BME280;24231;52.514;13.438;2023-04-03T03:37:20;102647.17;;;2.52;53.35
38452;BME280;24231;52.514;13.438;2023-04-03T03:39:48;102650.10;;;2.91;52.22
38452;BME280;24231;52.514;13.438;2023-04-03T03:42:15;102650.67;;;2.96;51.97
38452;BME280;24231;52.514;13.438;2023-04-03T03:44:42;102652.47;;;3.04;51.74
38452;BME280;24231;52.514;13.438;2023-04-03T03:47:09;102652.79;;;2.61;52.60
38452;BME280;24231;52.514;13.438;2023-04-03T03:49:36;102652.37;;;3.17;51.32
38452;BME280;24231;52.514;13.438;2023-04-03T03:52:04;102653.01;;;2.45;53.16
38452;BME280;24231;52.514;13.438;2023-04-03T03:54:31;102653.05;;;2.22;53.06
38452;BME280;24231;52.514;13.438;2023-04-03T03:56:58;102653.79;;;2.48;53.42
38452;BME280;24231;52.514;13.438;2023-04-03T03:59:25;102655.15;;;1.90;55.19
38452;BME280;24231;52.514;13.438;2023-04-03T04:01:52;102651.07;;;2.47;53.68
38452;BME280;24231;52.514;13.438;2023-04-03T04:04:19;102652.79;;;2.42;53.31
38452;BME280;24231;52.514;13.438;2023-04-03T04:06:46;102652.08;;;1.87;54.25
38452;BME280;24231;52.514;13.438;2023-04-03T04:09:13;102647.73;;;2.00;54.82
38452;BME280;24231;52.514;13.438;2023-04-03T04:11:41;102649.36;;;1.96;54.31
38452;BME280;24231;52.514;13.438;2023-04-03T04:14:09;102647.97;;;2.35;53.75
38452;BME280;24231;52.514;13.438;2023-04-03T04:16:36;102653.44;;;1.61;55.86
38452;BME280;24231;52.514;13.438;2023-04-03T04:19:03;102651.48;;;2.37;53.09
38452;BME280;24231;52.514;13.438;2023-04-03T04:21:30;102653.75;;;3.01;51.87
38452;BME280;24231;52.514;13.438;2023-04-03T04:23:57;102656.12;;;2.91;52.11
38452;BME280;24231;52.514;13.438;2023-04-03T04:26:25;102657.38;;;3.06;51.74
38452;BME280;24231;52.514;13.438;2023-04-03T04:28:52;102654.21;;;2.50;53.24
38452;BME280;24231;52.514;13.438;2023-04-03T04:31:18;102652.07;;;2.51;53.26
38452;BME280;24231;52.514;13.438;2023-04-03T04:33:45;102653.07;;;2.88;51.74
38452;BME280;24231;52.514;13.438;2023-04-03T04:36:24;102651.53;;;2.10;53.32
38452;BME280;24231;52.514;13.438;2023-04-03T04:38:53;102658.61;;;3.03;52.30
38452;BME280;24231;52.514;13.438;2023-04-03T04:41:20;102659.90;;;2.52;53.12
38452;BME280;24231;52.514;13.438;2023-04-03T04:43:47;102658.71;;;2.07;54.59
38452;BME280;24231;52.514;13.438;2023-04-03T04:46:14;102661.95;;;2.26;53.84
38452;BME280;24231;52.514;13.438;2023-04-03T04:48:42;102664.19;;;2.36;52.93
38452;BME280;24231;52.514;13.438;2023-04-03T04:51:10;102667.02;;;3.20;51.69
38452;BME280;24231;52.514;13.438;2023-04-03T04:53:38;102671.55;;;3.13;51.77
38452;BME280;24231;52.514;13.438;2023-04-03T04:56:07;102674.11;;;2.94;52.24
38452;BME280;24231;52.514;13.438;2023-04-03T04:58:38;102675.98;;;2.89;51.77
38452;BME280;24231;52.514;13.438;2023-04-03T05:01:08;102678.12;;;3.39;51.33
38452;BME280;24231;52.514;13.438;2023-04-03T05:03:35;102680.18;;;3.54;50.71
38452;BME280;24231;52.514;13.438;2023-04-03T05:06:03;102682.19;;;2.90;52.06
38452;BME280;24231;52.514;13.438;2023-04-03T05:08:30;102681.57;;;3.32;51.58
38452;BME280;24231;52.514;13.438;2023-04-03T05:10:57;102683.57;;;3.24;51.74
38452;BME280;24231;52.514;13.438;2023-04-03T05:13:24;102678.16;;;3.18;51.14
38452;BME280;24231;52.514;13.438;2023-04-03T05:15:52;102683.92;;;3.78;50.71
38452;BME280;24231;52.514;13.438;2023-04-03T05:18:19;102676.87;;;4.60;48.50
38452;BME280;24231;52.514;13.438;2023-04-03T05:20:48;102679.97;;;5.18;46.85
38452;BME280;24231;52.514;13.438;2023-04-03T05:23:15;102680.37;;;5.51;45.70
38452;BME280;24231;52.514;13.438;2023-04-03T05:25:43;102676.22;;;6.05;44.36
38452;BME280;24231;52.514;13.438;2023-04-03T05:28:11;102671.75;;;6.35;43.48
38452;BME280;24231;52.514;13.438;2023-04-03T05:30:38;102678.99;;;6.93;42.36
38452;BME280;24231;52.514;13.438;2023-04-03T05:33:26;102680.97;;;7.06;41.89
38452;BME280;24231;52.514;13.438;2023-04-03T05:35:54;102684.72;;;6.97;41.77
38452;BME280;24231;52.514;13.438;2023-04-03T05:38:23;102688.15;;;7.25;41.40
38452;BME280;24231;52.514;13.438;2023-04-03T05:40:50;102688.91;;;7.53;40.59
38452;BME280;24231;52.514;13.438;2023-04-03T05:43:17;102691.92;;;7.34;40.87
38452;BME280;24231;52.514;13.438;2023-04-03T05:45:46;102694.61;;;7.79;40.21
38452;BME280;24231;52.514;13.438;2023-04-03T05:48:13;102696.94;;;7.57;39.86
38452;BME280;24231;52.514;13.438;2023-04-03T05:50:42;102698.72;;;7.89;40.21
38452;BME280;24231;52.514;13.438;2023-04-03T05:53:16;102700.94;;;7.33;40.86
38452;BME280;24231;52.514;13.438;2023-04-03T05:55:45;102701.24;;;7.39;40.62
38452;BME280;24231;52.514;13.438;2023-04-03T05:58:12;102706.05;;;7.85;39.95
38452;BME280;24231;52.514;13.438;2023-04-03T06:00:40;102704.80;;;7.78;39.88
38452;BME280;24231;52.514;13.438;2023-04-03T06:03:08;102708.51;;;8.00;39.57
38452;BME280;24231;52.514;13.438;2023-04-03T06:05:35;102704.19;;;8.11;39.17
38452;BME280;24231;52.514;13.438;2023-04-03T06:08:04;102711.21;;;7.48;39.95
38452;BME280;24231;52.514;13.438;2023-04-03T06:10:32;102704.79;;;8.41;38.12
38452;BME280;24231;52.514;13.438;2023-04-03T06:12:59;102708.03;;;8.88;37.63
38452;BME280;24231;52.514;13.438;2023-04-03T06:15:27;102708.98;;;9.19;37.15
38452;BME280;24231;52.514;13.438;2023-04-03T06:17:54;102710.88;;;9.53;36.47
38452;BME280;24231;52.514;13.438;2023-04-03T06:20:23;102714.26;;;9.00;36.72
38452;BME280;24231;52.514;13.438;2023-04-03T06:22:50;102712.25;;;8.85;36.88
38452;BME280;24231;52.514;13.438;2023-04-03T06:25:17;102713.23;;;8.66;36.89
38452;BME280;24231;52.514;13.438;2023-04-03T06:27:45;102722.30;;;8.03;38.23
38452;BME280;24231;52.514;13.438;2023-04-03T06:30:12;102718.99;;;8.34;38.37
38452;BME280;24231;52.514;13.438;2023-04-03T06:32:39;102711.34;;;8.57;37.83
38452;BME280;24231;52.514;13.438;2023-04-03T06:35:10;102714.03;;;8.74;37.25
38452;BME280;24231;52.514;13.438;2023-04-03T06:37:37;102716.09;;;8.98;36.80
38452;BME280;24231;52.514;13.438;2023-04-03T06:40:05;102717.20;;;9.37;36.59
38452;BME280;24231;52.514;13.438;2023-04-03T06:42:33;102718.88;;;9.20;36.22
38452;BME280;24231;52.514;13.438;2023-04-03T06:45:00;102723.59;;;9.45;35.51
38452;BME280;24231;52.514;13.438;2023-04-03T06:47:28;102726.28;;;9.49;35.50
38452;BME280;24231;52.514;13.438;2023-04-03T06:49:56;102723.73;;;9.38;35.26
38452;BME280;24231;52.514;13.438;2023-04-03T06:52:23;102729.73;;;9.48;35.27
38452;BME280;24231;52.514;13.438;2023-04-03T06:54:50;102736.88;;;9.22;35.43
38452;BME280;24231;52.514;13.438;2023-04-03T06:57:17;102734.09;;;8.89;36.42
38452;BME280;24231;52.514;13.438;2023-04-03T06:59:44;102740.29;;;8.82;35.37
38452;BME280;24231;52.514;13.438;2023-04-03T07:02:12;102744.82;;;9.09;35.55
38452;BME280;24231;52.514;13.438;2023-04-03T07:04:39;102745.16;;;9.40;34.29
38452;BME280;24231;52.514;13.438;2023-04-03T07:07:07;102744.13;;;9.81;34.14
38452;BME280;24231;52.514;13.438;2023-04-03T07:09:44;102747.88;;;9.85;33.28
38452;BME280;24231;52.514;13.438;2023-04-03T07:12:11;102753.10;;;10.25;32.49
38452;BME280;24231;52.514;13.438;2023-04-03T07:14:39;102751.91;;;9.84;33.58
38452;BME280;24231;52.514;13.438;2023-04-03T07:17:06;102761.59;;;9.89;32.25
38452;BME280;24231;52.514;13.438;2023-04-03T07:19:33;102769.34;;;8.11;35.29
38452;BME280;24231;52.514;13.438;2023-04-03T07:22:07;102761.33;;;7.29;36.50
38452;BME280;24231;52.514;13.438;2023-04-03T07:24:34;102766.03;;;8.33;35.06
38452;BME280;24231;52.514;13.438;2023-04-03T07:27:41;102765.13;;;8.54;35.02
38452;BME280;24231;52.514;13.438;2023-04-03T07:30:09;102771.74;;;7.96;34.76
38452;BME280;24231;52.514;13.438;2023-04-03T07:32:37;102775.85;;;8.05;35.42
38452;BME280;24231;52.514;13.438;2023-04-03T07:35:05;102767.00;;;8.28;34.62
38452;BME280;24231;52.514;13.438;2023-04-03T07:37:34;102768.14;;;8.81;34.55
38452;BME280;24231;52.514;13.438;2023-04-03T07:40:01;102762.13;;;8.92;34.16
38452;BME280;24231;52.514;13.438;2023-04-03T07:42:28;102764.17;;;8.73;34.03
38452;BME280;24231;52.514;13.438;2023-04-03T07:44:56;102769.73;;;8.86;33.91
38452;BME280;24231;52.514;13.438;2023-04-03T07:47:23;102769.60;;;9.64;32.74
38452;BME280;24231;52.514;13.438;2023-04-03T07:49:50;102765.92;;;10.07;31.81
38452;BME280;24231;52.514;13.438;2023-04-03T07:52:18;102763.17;;;9.80;31.39
38452;BME280;24231;52.514;13.438;2023-04-03T07:54:45;102772.91;;;9.11;31.72
38452;BME280;24231;52.514;13.438;2023-04-03T07:57:12;102786.05;;;6.49;35.14
38452;BME280;24231;52.514;13.438;2023-04-03T07:59:40;102786.56;;;5.03;38.25
38452;BME280;24231;52.514;13.438;2023-04-03T08:02:09;102780.30;;;5.18;38.51
38452;BME280;24231;52.514;13.438;2023-04-03T08:04:36;102787.39;;;5.10;38.07
38452;BME280;24231;52.514;13.438;2023-04-03T08:07:03;102793.73;;;4.37;39.89
38452;BME280;24231;52.514;13.438;2023-04-03T08:09:31;102818.05;;;3.90;41.37
38452;BME280;24231;52.514;13.438;2023-04-03T08:11:59;102794.28;;;3.39;43.30
38452;BME280;24231;52.514;13.438;2023-04-03T08:14:27;102788.15;;;3.40;44.03
38452;BME280;24231;52.514;13.438;2023-04-03T08:16:54;102790.69;;;4.30;42.42
38452;BME280;24231;52.514;13.438;2023-04-03T08:19:21;102778.55;;;5.84;39.25
38452;BME280;24231;52.514;13.438;2023-04-03T08:21:49;102782.44;;;6.41;37.51
38452;BME280;24231;52.514;13.438;2023-04-03T08:24:17;102782.89;;;6.50;37.21
38452;BME280;24231;52.514;13.438;2023-04-03T08:26:44;102783.35;;;6.66;36.60
38452;BME280;24231;52.514;13.438;2023-04-03T08:29:12;102782.22;;;6.99;36.26
38452;BME280;24231;52.514;13.438;2023-04-03T08:31:39;102784.05;;;5.65;38.59
38452;BME280;24231;52.514;13.438;2023-04-03T08:34:07;102789.78;;;4.83;39.98
38452;BME280;24231;52.514;13.438;2023-04-03T08:36:34;102779.95;;;6.10;37.86
38452;BME280;24231;52.514;13.438;2023-04-03T08:39:01;102775.54;;;6.65;37.37
38452;BME280;24231;52.514;13.438;2023-04-03T08:41:32;102769.30;;;6.54;36.83
38452;BME280;24231;52.514;13.438;2023-04-03T08:44:09;102773.75;;;6.91;35.76
38452;BME280;24231;52.514;13.438;2023-04-03T08:46:49;102770.79;;;6.64;36.03
38452;BME280;24231;52.514;13.438;2023-04-03T08:49:24;102774.52;;;6.56;36.28
38452;BME280;24231;52.514;13.438;2023-04-03T08:51:54;102774.53;;;6.26;36.65
38452;BME280;24231;52.514;13.438;2023-04-03T08:54:28;102774.76;;;6.16;37.09
38452;BME280;24231;52.514;13.438;2023-04-03T08:56:57;102776.39;;;6.46;36.70
38452;BME280;24231;52.514;13.438;2023-04-03T08:59:29;102776.17;;;6.32;36.62
38452;BME280;24231;52.514;13.438;2023-04-03T09:02:02;102784.66;;;5.39;37.16
38452;BME280;24231;52.514;13.438;2023-04-03T09:04:31;102784.08;;;4.98;38.67
38452;BME280;24231;52.514;13.438;2023-04-03T09:07:03;102783.11;;;3.43;40.81
38452;BME280;24231;52.514;13.438;2023-04-03T09:09:36;102779.39;;;4.58;39.86
38452;BME280;24231;52.514;13.438;2023-04-03T09:12:13;102780.12;;;4.20;38.38
38452;BME280;24231;52.514;13.438;2023-04-03T09:14:49;102789.91;;;4.15;38.80
38452;BME280;24231;52.514;13.438;2023-04-03T09:17:31;102775.29;;;3.87;39.09
38452;BME280;24231;52.514;13.438;2023-04-03T09:20:13;102778.77;;;3.63;39.40
38452;BME280;24231;52.514;13.438;2023-04-03T09:22:44;102783.89;;;4.55;38.39
38452;BME280;24231;52.514;13.438;2023-04-03T09:25:14;102784.85;;;4.85;36.52
38452;BME280;24231;52.514;13.438;2023-04-03T09:27:43;102774.11;;;5.45;35.86
38452;BME280;24231;52.514;13.438;2023-04-03T09:30:13;102791.57;;;4.08;37.66
38452;BME280;24231;52.514;13.438;2023-04-03T09:32:41;102769.83;;;5.37;36.11
38452;BME280;24231;52.514;13.438;2023-04-03T09:35:18;102766.93;;;6.61;34.36
38452;BME280;24231;52.514;13.438;2023-04-03T09:37:48;102763.61;;;6.61;33.59
38452;BME280;24231;52.514;13.438;2023-04-03T09:40:34;102762.80;;;8.10;31.52
38452;BME280;24231;52.514;13.438;2023-04-03T09:43:16;102771.24;;;4.73;36.04
38452;BME280;24231;52.514;13.438;2023-04-03T09:45:49;102773.95;;;5.25;35.08
38452;BME280;24231;52.514;13.438;2023-04-03T09:48:18;102785.31;;;5.38;35.34
38452;BME280;24231;52.514;13.438;2023-04-03T09:50:57;102780.45;;;4.24;37.87
38452;BME280;24231;52.514;13.438;2023-04-03T09:53:28;102782.95;;;4.50;36.50
38452;BME280;24231;52.514;13.438;2023-04-03T09:55:57;102767.97;;;4.91;36.37
38452;BME280;24231;52.514;13.438;2023-04-03T09:58:27;102773.43;;;5.34;35.78
38452;BME280;24231;52.514;13.438;2023-04-03T10:00:57;102767.49;;;5.94;35.51
38452;BME280;24231;52.514;13.438;2023-04-03T10:03:29;102758.84;;;7.09;33.98
38452;BME280;24231;52.514;13.438;2023-04-03T10:05:58;102760.48;;;7.61;33.33
38452;BME280;24231;52.514;13.438;2023-04-03T10:08:29;102756.58;;;7.58;33.25
38452;BME280;24231;52.514;13.438;2023-04-03T10:11:14;102750.11;;;7.07;33.61
38452;BME280;24231;52.514;13.438;2023-04-03T10:13:51;102746.69;;;7.08;33.94
38452;BME280;24231;52.514;13.438;2023-04-03T10:16:21;102749.66;;;6.74;34.48
38452;BME280;24231;52.514;13.438;2023-04-03T10:19:03;102749.11;;;7.21;33.65
38452;BME280;24231;52.514;13.438;2023-04-03T10:21:38;102746.45;;;7.44;33.63
38452;BME280;24231;52.514;13.438;2023-04-03T10:24:11;102743.94;;;6.99;33.43
38452;BME280;24231;52.514;13.438;2023-04-03T10:26:48;102753.52;;;5.18;36.61
38452;BME280;24231;52.514;13.438;2023-04-03T10:29:30;102749.08;;;5.37;36.55
38452;BME280;24231;52.514;13.438;2023-04-03T10:32:18;102741.67;;;6.88;33.88
38452;BME280;24231;52.514;13.438;2023-04-03T10:34:52;102734.84;;;6.89;33.01
38452;BME280;24231;52.514;13.438;2023-04-03T10:37:27;102730.76;;;7.52;32.20
38452;BME280;24231;52.514;13.438;2023-04-03T10:39:59;102727.71;;;7.74;31.22
38452;BME280;24231;52.514;13.438;2023-04-03T10:42:34;102726.63;;;7.48;30.84
38452;BME280;24231;52.514;13.438;2023-04-03T10:45:19;102720.83;;;8.17;30.40
38452;BME280;24231;52.514;13.438;2023-04-03T10:47:55;102728.29;;;8.09;31.21
38452;BME280;24231;52.514;13.438;2023-04-03T10:50:31;102718.56;;;8.23;31.24
38452;BME280;24231;52.514;13.438;2023-04-03T10:53:07;102721.69;;;8.15;31.29
38452;BME280;24231;52.514;13.438;2023-04-03T10:55:40;102730.01;;;4.77;36.39
38452;BME280;24231;52.514;13.438;2023-04-03T10:58:16;102727.35;;;4.61;37.68
38452;BME280;24231;52.514;13.438;2023-04-03T11:00:47;102725.53;;;4.75;37.21
38452;BME280;24231;52.514;13.438;2023-04-03T11:03:27;102716.69;;;4.80;37.40
38452;BME280;24231;52.514;13.438;2023-04-03T11:05:57;102716.74;;;5.96;35.86
38452;BME280;24231;52.514;13.438;2023-04-03T11:08:28;102737.08;;;5.74;35.43
38452;BME280;24231;52.514;13.438;2023-04-03T11:11:03;102719.35;;;5.34;36.47
38452;BME280;24231;52.514;13.438;2023-04-03T11:13:35;102714.82;;;5.60;36.49
38452;BME280;24231;52.514;13.438;2023-04-03T11:16:05;102708.32;;;6.54;36.36
38452;BME280;24231;52.514;13.438;2023-04-03T11:18:37;102705.54;;;4.97;37.33
38452;BME280;24231;52.514;13.438;2023-04-03T11:21:12;102701.59;;;7.10;33.98
38452;BME280;24231;52.514;13.438;2023-04-03T11:23:41;102709.20;;;6.05;35.54
38452;BME280;24231;52.514;13.438;2023-04-03T11:26:11;102715.18;;;4.46;38.35
38452;BME280;24231;52.514;13.438;2023-04-03T11:28:39;102717.48;;;3.52;40.78
38452;BME280;24231;52.514;13.438;2023-04-03T11:31:18;102698.20;;;4.70;39.24
38452;BME280;24231;52.514;13.438;2023-04-03T11:33:58;102703.61;;;5.35;38.42
38452;BME280;24231;52.514;13.438;2023-04-03T11:36:31;102698.09;;;6.17;36.66
38452;BME280;24231;52.514;13.438;2023-04-03T11:39:06;102697.71;;;7.24;34.47
38452;BME280;24231;52.514;13.438;2023-04-03T11:41:36;102699.07;;;6.34;35.76
38452;BME280;24231;52.514;13.438;2023-04-03T11:44:05;102699.26;;;4.83;38.69
38452;BME280;24231;52.514;13.438;2023-04-03T11:46:51;102705.14;;;3.75;41.20
38452;BME280;24231;52.514;13.438;2023-04-03T11:51:42;102696.66;;;5.06;38.68
38452;BME280;24231;52.514;13.438;2023-04-03T11:56:30;102702.09;;;5.95;37.93
38452;BME280;24231;52.514;13.438;2023-04-03T11:59:37;102701.60;;;5.54;38.09
38452;BME280;24231;52.514;13.438;2023-04-03T12:02:35;102697.51;;;6.37;36.83
38452;BME280;24231;52.514;13.438;2023-04-03T12:05:36;102692.93;;;6.93;36.07
38452;BME280;24231;52.514;13.438;2023-04-03T12:08:45;102698.41;;;6.63;35.76
38452;BME280;24231;52.514;13.438;2023-04-03T12:11:15;102695.92;;;6.10;36.75
38452;BME280;24231;52.514;13.438;2023-04-03T12:14:03;102692.17;;;6.23;36.25
38452;BME280;24231;52.514;13.438;2023-04-03T12:16:42;102688.21;;;6.98;35.40
38452;BME280;24231;52.514;13.438;2023-04-03T12:19:31;102691.77;;;6.62;35.75
38452;BME280;24231;52.514;13.438;2023-04-03T12:22:14;102690.22;;;6.96;35.85
38452;BME280;24231;52.514;13.438;2023-04-03T12:24:43;102686.57;;;7.68;34.88
38452;BME280;24231;52.514;13.438;2023-04-03T12:27:43;102684.19;;;6.38;35.74
38452;BME280;24231;52.514;13.438;2023-04-03T12:30:16;102683.34;;;7.18;35.16
38452;BME280;24231;52.514;13.438;2023-04-03T12:32:58;102682.46;;;7.47;34.68
38452;BME280;24231;52.514;13.438;2023-04-03T12:35:31;102682.33;;;7.11;35.34
38452;BME280;24231;52.514;13.438;2023-04-03T12:38:26;102678.48;;;6.26;35.74
38452;BME280;24231;52.514;13.438;2023-04-03T12:41:01;102668.59;;;6.73;34.96
38452;BME280;24231;52.514;13.438;2023-04-03T12:44:31;102661.73;;;6.49;34.95
38452;BME280;24231;52.514;13.438;2023-04-03T12:47:22;102669.19;;;5.86;36.49
38452;BME280;24231;52.514;13.438;2023-04-03T12:49:50;102659.49;;;6.25;35.53
38452;BME280;24231;52.514;13.438;2023-04-03T12:52:28;102670.94;;;7.07;34.39
38452;BME280;24231;52.514;13.438;2023-04-03T12:54:59;102673.31;;;7.56;33.68
38452;BME280;24231;52.514;13.438;2023-04-03T12:57:27;102665.81;;;5.99;35.62
38452;BME280;24231;52.514;13.438;2023-04-03T12:59:54;102666.04;;;6.68;34.77
38452;BME280;24231;52.514;13.438;2023-04-03T13:02:25;102660.68;;;6.66;34.51
38452;BME280;24231;52.514;13.438;2023-04-03T13:04:55;102657.92;;;6.24;35.13
38452;BME280;24231;52.514;13.438;2023-04-03T13:07:26;102659.64;;;7.25;33.48
38452;BME280;24231;52.514;13.438;2023-04-03T13:09:57;102651.74;;;8.37;32.77
38452;BME280;24231;52.514;13.438;2023-04-03T13:12:24;102648.79;;;8.35;32.24
38452;BME280;24231;52.514;13.438;2023-04-03T13:14:52;102656.74;;;7.58;33.56